sensor_id;sensor_type;location;lat;lon;timestamp;P1;durP1;ratioP1;P2;durP2;ratioP2
9098;SDS011;4585;51.414;6.776;2022-07-23T00:00:10;8.80;;;3.67;;
9098;SDS011;4585;51.414;6.776;2022-07-23T00:02:36;3.43;;;3.13;;
9098;SDS011;4585;51.414;6.776;2022-07-23T00:05:02;4.37;;;3.37;;
9098;SDS011;4585;51.414;6.776;2022-07-23T00:07:28;3.93;;;3.53;;
9098;SDS011;4585;51.414;6.776;2022-07-23T00:09:54;3.80;;;3.40;;
9098;SDS011;4585;51.414;6.776;2022-07-23T00:12:20;7.80;;;3.70;;
9098;SDS011;4585;51.414;6.776;2022-07-23T00:14:46;5.60;;;4.00;;
9098;SDS011;4585;51.414;6.776;2022-07-23T00:17:12;4.87;;;3.97;;
9098;SDS011;4585;51.414;6.776;2022-07-23T00:19:37;5.67;;;4.17;;
9098;SDS011;4585;51.414;6.776;2022-07-23T00:22:03;7.27;;;4.50;;
9098;SDS011;4585;51.414;6.776;2022-07-23T00:24:29;6.73;;;4.20;;
9098;SDS011;4585;51.414;6.776;2022-07-23T00:26:54;5.17;;;3.87;;
9098;SDS011;4585;51.414;6.776;2022-07-23T00:29:20;5.63;;;4.30;;
9098;SDS011;4585;51.414;6.776;2022-07-23T00:31:46;6.50;;;4.27;;
9098;SDS011;4585;51.414;6.776;2022-07-23T00:34:11;4.60;;;3.90;;
9098;SDS011;4585;51.414;6.776;2022-07-23T00:36:37;6.17;;;4.50;;
9098;SDS011;4585;51.414;6.776;2022-07-23T00:39:03;5.80;;;4.50;;
9098;SDS011;4585;51.414;6.776;2022-07-23T00:41:29;5.37;;;3.80;;
9098;SDS011;4585;51.414;6.776;2022-07-23T00:43:55;6.03;;;3.93;;
9098;SDS011;4585;51.414;6.776;2022-07-23T00:46:21;9.60;;;4.23;;
9098;SDS011;4585;51.414;6.776;2022-07-23T00:48:47;5.13;;;4.17;;
9098;SDS011;4585;51.414;6.776;2022-07-23T00:51:14;5.13;;;4.37;;
9098;SDS011;4585;51.414;6.776;2022-07-23T00:53:41;7.67;;;4.33;;
9098;SDS011;4585;51.414;6.776;2022-07-23T00:56:07;4.63;;;3.57;;
9098;SDS011;4585;51.414;6.776;2022-07-23T00:58:34;4.80;;;4.07;;
9098;SDS011;4585;51.414;6.776;2022-07-23T01:01:01;5.67;;;3.97;;
9098;SDS011;4585;51.414;6.776;2022-07-23T01:03:26;5.67;;;4.20;;
9098;SDS011;4585;51.414;6.776;2022-07-23T01:05:52;6.63;;;3.93;;
9098;SDS011;4585;51.414;6.776;2022-07-23T01:08:18;7.20;;;4.00;;
9098;SDS011;4585;51.414;6.776;2022-07-23T01:10:45;8.17;;;4.27;;
9098;SDS011;4585;51.414;6.776;2022-07-23T01:13:13;5.37;;;4.30;;
9098;SDS011;4585;51.414;6.776;2022-07-23T01:15:39;7.23;;;4.37;;
9098;SDS011;4585;51.414;6.776;2022-07-23T01:18:05;4.90;;;3.93;;
9098;SDS011;4585;51.414;6.776;2022-07-23T01:20:32;5.97;;;4.40;;
9098;SDS011;4585;51.414;6.776;2022-07-23T01:22:58;7.00;;;4.00;;
9098;SDS011;4585;51.414;6.776;2022-07-23T01:25:24;5.43;;;4.10;;
9098;SDS011;4585;51.414;6.776;2022-07-23T01:27:51;5.10;;;3.93;;
9098;SDS011;4585;51.414;6.776;2022-07-23T01:30:18;4.77;;;3.97;;
9098;SDS011;4585;51.414;6.776;2022-07-23T01:32:44;5.83;;;4.37;;
9098;SDS011;4585;51.414;6.776;2022-07-23T01:35:10;4.87;;;4.07;;
9098;SDS011;4585;51.414;6.776;2022-07-23T01:37:36;5.37;;;3.97;;
9098;SDS011;4585;51.414;6.776;2022-07-23T01:40:02;7.23;;;4.40;;
9098;SDS011;4585;51.414;6.776;2022-07-23T01:42:29;6.30;;;4.27;;
9098;SDS011;4585;51.414;6.776;2022-07-23T01:44:55;6.47;;;4.57;;
9098;SDS011;4585;51.414;6.776;2022-07-23T01:47:20;5.73;;;4.17;;
9098;SDS011;4585;51.414;6.776;2022-07-23T01:49:46;5.70;;;4.43;;
9098;SDS011;4585;51.414;6.776;2022-07-23T01:52:12;6.40;;;4.40;;
9098;SDS011;4585;51.414;6.776;2022-07-23T01:54:38;6.43;;;4.60;;
9098;SDS011;4585;51.414;6.776;2022-07-23T01:57:04;7.53;;;4.17;;
9098;SDS011;4585;51.414;6.776;2022-07-23T01:59:30;5.87;;;3.83;;
9098;SDS011;4585;51.414;6.776;2022-07-23T02:01:56;5.23;;;4.10;;
9098;SDS011;4585;51.414;6.776;2022-07-23T02:04:23;5.07;;;4.00;;
9098;SDS011;4585;51.414;6.776;2022-07-23T02:06:49;5.57;;;4.23;;
9098;SDS011;4585;51.414;6.776;2022-07-23T02:09:15;5.60;;;4.40;;
9098;SDS011;4585;51.414;6.776;2022-07-23T02:11:42;8.63;;;4.50;;
9098;SDS011;4585;51.414;6.776;2022-07-23T02:14:08;8.17;;;4.80;;
9098;SDS011;4585;51.414;6.776;2022-07-23T02:16:34;5.60;;;4.40;;
9098;SDS011;4585;51.414;6.776;2022-07-23T02:18:59;6.30;;;4.80;;
9098;SDS011;4585;51.414;6.776;2022-07-23T02:21:25;5.07;;;4.17;;
9098;SDS011;4585;51.414;6.776;2022-07-23T02:23:51;7.37;;;4.67;;
9098;SDS011;4585;51.414;6.776;2022-07-23T02:26:17;6.10;;;4.37;;
9098;SDS011;4585;51.414;6.776;2022-07-23T02:28:42;4.80;;;4.07;;
9098;SDS011;4585;51.414;6.776;2022-07-23T02:31:08;5.37;;;4.13;;
9098;SDS011;4585;51.414;6.776;2022-07-23T02:33:34;5.63;;;4.53;;
9098;SDS011;4585;51.414;6.776;2022-07-23T02:36:00;5.97;;;4.47;;
9098;SDS011;4585;51.414;6.776;2022-07-23T02:38:25;6.93;;;4.70;;
9098;SDS011;4585;51.414;6.776;2022-07-23T02:40:51;7.33;;;4.90;;
9098;SDS011;4585;51.414;6.776;2022-07-23T02:43:17;6.13;;;4.57;;
9098;SDS011;4585;51.414;6.776;2022-07-23T02:45:43;5.57;;;4.27;;
9098;SDS011;4585;51.414;6.776;2022-07-23T02:48:08;6.43;;;4.67;;
9098;SDS011;4585;51.414;6.776;2022-07-23T02:50:37;7.40;;;5.17;;
9098;SDS011;4585;51.414;6.776;2022-07-23T02:53:03;5.47;;;4.00;;
9098;SDS011;4585;51.414;6.776;2022-07-23T02:55:29;10.10;;;4.97;;
9098;SDS011;4585;51.414;6.776;2022-07-23T02:57:56;9.73;;;4.80;;
9098;SDS011;4585;51.414;6.776;2022-07-23T03:00:22;6.67;;;4.70;;
9098;SDS011;4585;51.414;6.776;2022-07-23T03:02:47;9.57;;;4.87;;
9098;SDS011;4585;51.414;6.776;2022-07-23T03:05:13;7.17;;;4.53;;
9098;SDS011;4585;51.414;6.776;2022-07-23T03:07:39;6.27;;;4.30;;
9098;SDS011;4585;51.414;6.776;2022-07-23T03:10:04;6.53;;;4.53;;
9098;SDS011;4585;51.414;6.776;2022-07-23T03:12:30;6.07;;;4.63;;
9098;SDS011;4585;51.414;6.776;2022-07-23T03:14:56;8.13;;;5.17;;
9098;SDS011;4585;51.414;6.776;2022-07-23T03:17:22;6.00;;;5.00;;
9098;SDS011;4585;51.414;6.776;2022-07-23T03:19:47;5.13;;;4.60;;
9098;SDS011;4585;51.414;6.776;2022-07-23T03:22:13;5.57;;;4.37;;
9098;SDS011;4585;51.414;6.776;2022-07-23T03:24:39;6.17;;;4.80;;
9098;SDS011;4585;51.414;6.776;2022-07-23T03:27:20;5.50;;;4.20;;
9098;SDS011;4585;51.414;6.776;2022-07-23T03:29:50;6.63;;;4.50;;
9098;SDS011;4585;51.414;6.776;2022-07-23T03:32:17;5.40;;;4.20;;
9098;SDS011;4585;51.414;6.776;2022-07-23T03:34:42;6.07;;;4.27;;
9098;SDS011;4585;51.414;6.776;2022-07-23T03:37:08;5.97;;;4.67;;
9098;SDS011;4585;51.414;6.776;2022-07-23T03:39:34;6.90;;;4.47;;
9098;SDS011;4585;51.414;6.776;2022-07-23T03:41:59;6.13;;;4.60;;
9098;SDS011;4585;51.414;6.776;2022-07-23T03:44:25;7.03;;;4.40;;
9098;SDS011;4585;51.414;6.776;2022-07-23T03:46:51;11.60;;;4.20;;
9098;SDS011;4585;51.414;6.776;2022-07-23T03:49:17;7.30;;;4.40;;
9098;SDS011;4585;51.414;6.776;2022-07-23T03:51:43;8.60;;;4.20;;
9098;SDS011;4585;51.414;6.776;2022-07-23T03:54:08;4.93;;;4.07;;
9098;SDS011;4585;51.414;6.776;2022-07-23T03:56:34;5.50;;;3.97;;
9098;SDS011;4585;51.414;6.776;2022-07-23T03:59:00;7.63;;;4.57;;
9098;SDS011;4585;51.414;6.776;2022-07-23T04:01:26;5.63;;;4.10;;
9098;SDS011;4585;51.414;6.776;2022-07-23T04:03:52;4.27;;;3.87;;
9098;SDS011;4585;51.414;6.776;2022-07-23T04:06:17;5.87;;;4.70;;
9098;SDS011;4585;51.414;6.776;2022-07-23T04:08:43;5.37;;;4.13;;
9098;SDS011;4585;51.414;6.776;2022-07-23T04:11:09;7.30;;;4.83;;
9098;SDS011;4585;51.414;6.776;2022-07-23T04:13:35;5.30;;;4.10;;
9098;SDS011;4585;51.414;6.776;2022-07-23T04:16:00;6.80;;;4.53;;
9098;SDS011;4585;51.414;6.776;2022-07-23T04:18:26;4.67;;;3.97;;
9098;SDS011;4585;51.414;6.776;2022-07-23T04:20:52;5.03;;;4.40;;
9098;SDS011;4585;51.414;6.776;2022-07-23T04:23:17;5.83;;;4.50;;
9098;SDS011;4585;51.414;6.776;2022-07-23T04:25:43;6.17;;;4.63;;
9098;SDS011;4585;51.414;6.776;2022-07-23T04:28:09;7.53;;;4.50;;
9098;SDS011;4585;51.414;6.776;2022-07-23T04:30:35;5.63;;;4.20;;
9098;SDS011;4585;51.414;6.776;2022-07-23T04:33:00;5.73;;;4.50;;
9098;SDS011;4585;51.414;6.776;2022-07-23T04:35:30;8.67;;;4.70;;
9098;SDS011;4585;51.414;6.776;2022-07-23T04:37:56;5.27;;;4.33;;
9098;SDS011;4585;51.414;6.776;2022-07-23T04:40:22;4.87;;;4.33;;
9098;SDS011;4585;51.414;6.776;2022-07-23T04:42:47;6.47;;;4.70;;
9098;SDS011;4585;51.414;6.776;2022-07-23T04:45:13;8.63;;;4.30;;
9098;SDS011;4585;51.414;6.776;2022-07-23T04:47:39;6.13;;;4.70;;
9098;SDS011;4585;51.414;6.776;2022-07-23T04:50:04;6.80;;;4.70;;
9098;SDS011;4585;51.414;6.776;2022-07-23T04:52:30;5.47;;;4.63;;
9098;SDS011;4585;51.414;6.776;2022-07-23T04:54:56;6.20;;;4.60;;
9098;SDS011;4585;51.414;6.776;2022-07-23T04:57:21;5.27;;;4.33;;
9098;SDS011;4585;51.414;6.776;2022-07-23T04:59:47;6.70;;;4.83;;
9098;SDS011;4585;51.414;6.776;2022-07-23T05:02:13;5.60;;;4.80;;
9098;SDS011;4585;51.414;6.776;2022-07-23T05:04:38;11.73;;;4.80;;
9098;SDS011;4585;51.414;6.776;2022-07-23T05:07:04;5.80;;;4.97;;
9098;SDS011;4585;51.414;6.776;2022-07-23T05:09:30;11.83;;;5.53;;
9098;SDS011;4585;51.414;6.776;2022-07-23T05:11:55;6.63;;;5.30;;
9098;SDS011;4585;51.414;6.776;2022-07-23T05:14:21;6.97;;;5.47;;
9098;SDS011;4585;51.414;6.776;2022-07-23T05:16:47;7.53;;;5.10;;
9098;SDS011;4585;51.414;6.776;2022-07-23T05:19:13;8.80;;;5.00;;
9098;SDS011;4585;51.414;6.776;2022-07-23T05:21:39;9.47;;;5.60;;
9098;SDS011;4585;51.414;6.776;2022-07-23T05:24:05;7.40;;;6.13;;
9098;SDS011;4585;51.414;6.776;2022-07-23T05:26:31;10.50;;;5.97;;
9098;SDS011;4585;51.414;6.776;2022-07-23T05:28:56;8.30;;;6.00;;
9098;SDS011;4585;51.414;6.776;2022-07-23T05:31:22;8.97;;;6.63;;
9098;SDS011;4585;51.414;6.776;2022-07-23T05:33:48;8.17;;;6.60;;
9098;SDS011;4585;51.414;6.776;2022-07-23T05:36:13;10.53;;;7.17;;
9098;SDS011;4585;51.414;6.776;2022-07-23T05:38:39;10.33;;;6.53;;
9098;SDS011;4585;51.414;6.776;2022-07-23T05:41:05;10.27;;;6.90;;
9098;SDS011;4585;51.414;6.776;2022-07-23T05:43:31;13.40;;;6.93;;
9098;SDS011;4585;51.414;6.776;2022-07-23T05:45:56;11.27;;;6.63;;
9098;SDS011;4585;51.414;6.776;2022-07-23T05:48:22;9.77;;;6.60;;
9098;SDS011;4585;51.414;6.776;2022-07-23T05:50:48;12.80;;;6.77;;
9098;SDS011;4585;51.414;6.776;2022-07-23T05:53:14;9.93;;;7.20;;
9098;SDS011;4585;51.414;6.776;2022-07-23T05:55:39;9.77;;;7.00;;
9098;SDS011;4585;51.414;6.776;2022-07-23T05:58:05;10.47;;;7.23;;
9098;SDS011;4585;51.414;6.776;2022-07-23T06:00:31;13.57;;;7.93;;
9098;SDS011;4585;51.414;6.776;2022-07-23T06:02:58;10.73;;;7.57;;
9098;SDS011;4585;51.414;6.776;2022-07-23T06:05:23;10.73;;;7.70;;
9098;SDS011;4585;51.414;6.776;2022-07-23T06:07:49;17.10;;;9.40;;
9098;SDS011;4585;51.414;6.776;2022-07-23T06:10:15;13.80;;;8.83;;
9098;SDS011;4585;51.414;6.776;2022-07-23T06:12:41;15.03;;;8.67;;
9098;SDS011;4585;51.414;6.776;2022-07-23T06:15:07;12.30;;;8.17;;
9098;SDS011;4585;51.414;6.776;2022-07-23T06:17:34;13.33;;;9.10;;
9098;SDS011;4585;51.414;6.776;2022-07-23T06:19:59;14.87;;;9.70;;
9098;SDS011;4585;51.414;6.776;2022-07-23T06:22:25;13.00;;;9.40;;
9098;SDS011;4585;51.414;6.776;2022-07-23T06:24:51;14.90;;;9.77;;
9098;SDS011;4585;51.414;6.776;2022-07-23T06:27:16;16.83;;;10.27;;
9098;SDS011;4585;51.414;6.776;2022-07-23T06:29:43;17.57;;;10.83;;
9098;SDS011;4585;51.414;6.776;2022-07-23T06:32:08;21.27;;;10.10;;
9098;SDS011;4585;51.414;6.776;2022-07-23T06:34:34;20.47;;;9.90;;
9098;SDS011;4585;51.414;6.776;2022-07-23T06:37:00;19.67;;;10.30;;
9098;SDS011;4585;51.414;6.776;2022-07-23T06:39:26;20.77;;;10.60;;
9098;SDS011;4585;51.414;6.776;2022-07-23T06:41:51;17.83;;;10.23;;
9098;SDS011;4585;51.414;6.776;2022-07-23T06:44:18;17.03;;;10.73;;
9098;SDS011;4585;51.414;6.776;2022-07-23T06:46:44;34.37;;;11.43;;
9098;SDS011;4585;51.414;6.776;2022-07-23T06:49:10;18.87;;;11.33;;
9098;SDS011;4585;51.414;6.776;2022-07-23T06:51:37;19.10;;;11.50;;
9098;SDS011;4585;51.414;6.776;2022-07-23T06:54:03;20.03;;;11.03;;
9098;SDS011;4585;51.414;6.776;2022-07-23T06:56:30;21.67;;;11.87;;
9098;SDS011;4585;51.414;6.776;2022-07-23T06:58:56;22.03;;;11.87;;
9098;SDS011;4585;51.414;6.776;2022-07-23T07:01:22;18.57;;;10.80;;
9098;SDS011;4585;51.414;6.776;2022-07-23T07:03:48;20.20;;;11.83;;
9098;SDS011;4585;51.414;6.776;2022-07-23T07:06:14;21.67;;;11.70;;
9098;SDS011;4585;51.414;6.776;2022-07-23T07:08:40;20.47;;;11.63;;
9098;SDS011;4585;51.414;6.776;2022-07-23T07:11:08;14.00;;;10.03;;
9098;SDS011;4585;51.414;6.776;2022-07-23T07:13:36;19.03;;;12.07;;
9098;SDS011;4585;51.414;6.776;2022-07-23T07:16:02;22.40;;;12.23;;
9098;SDS011;4585;51.414;6.776;2022-07-23T07:18:28;19.43;;;11.63;;
9098;SDS011;4585;51.414;6.776;2022-07-23T07:20:54;18.37;;;12.10;;
9098;SDS011;4585;51.414;6.776;2022-07-23T07:23:19;24.40;;;14.03;;
9098;SDS011;4585;51.414;6.776;2022-07-23T07:25:45;24.13;;;13.00;;
9098;SDS011;4585;51.414;6.776;2022-07-23T07:28:11;23.87;;;12.93;;
9098;SDS011;4585;51.414;6.776;2022-07-23T07:30:37;31.83;;;15.53;;
9098;SDS011;4585;51.414;6.776;2022-07-23T07:33:03;26.00;;;13.53;;
9098;SDS011;4585;51.414;6.776;2022-07-23T07:35:29;28.57;;;15.57;;
9098;SDS011;4585;51.414;6.776;2022-07-23T07:37:56;28.93;;;17.30;;
9098;SDS011;4585;51.414;6.776;2022-07-23T07:40:22;33.23;;;18.10;;
9098;SDS011;4585;51.414;6.776;2022-07-23T07:42:48;30.20;;;17.13;;
9098;SDS011;4585;51.414;6.776;2022-07-23T07:45:15;26.50;;;15.00;;
9098;SDS011;4585;51.414;6.776;2022-07-23T07:47:41;19.23;;;12.77;;
9098;SDS011;4585;51.414;6.776;2022-07-23T07:50:07;25.63;;;13.87;;
9098;SDS011;4585;51.414;6.776;2022-07-23T07:52:33;18.43;;;11.43;;
9098;SDS011;4585;51.414;6.776;2022-07-23T07:55:02;18.07;;;10.70;;
9098;SDS011;4585;51.414;6.776;2022-07-23T07:57:32;15.43;;;10.97;;
9098;SDS011;4585;51.414;6.776;2022-07-23T07:59:58;15.37;;;11.33;;
9098;SDS011;4585;51.414;6.776;2022-07-23T08:02:24;16.43;;;11.93;;
9098;SDS011;4585;51.414;6.776;2022-07-23T08:04:50;18.83;;;11.13;;
9098;SDS011;4585;51.414;6.776;2022-07-23T08:07:17;18.20;;;10.73;;
9098;SDS011;4585;51.414;6.776;2022-07-23T08:09:43;12.33;;;8.23;;
9098;SDS011;4585;51.414;6.776;2022-07-23T08:12:08;10.57;;;6.50;;
9098;SDS011;4585;51.414;6.776;2022-07-23T08:14:34;10.23;;;5.60;;
9098;SDS011;4585;51.414;6.776;2022-07-23T08:17:00;8.37;;;5.30;;
9098;SDS011;4585;51.414;6.776;2022-07-23T08:19:25;7.00;;;5.17;;
9098;SDS011;4585;51.414;6.776;2022-07-23T08:21:51;6.50;;;4.70;;
9098;SDS011;4585;51.414;6.776;2022-07-23T08:24:17;7.10;;;4.47;;
9098;SDS011;4585;51.414;6.776;2022-07-23T08:26:42;5.47;;;3.70;;
9098;SDS011;4585;51.414;6.776;2022-07-23T08:29:08;5.73;;;3.10;;
9098;SDS011;4585;51.414;6.776;2022-07-23T08:31:34;5.00;;;3.00;;
9098;SDS011;4585;51.414;6.776;2022-07-23T08:34:00;6.00;;;2.73;;
9098;SDS011;4585;51.414;6.776;2022-07-23T08:36:27;5.83;;;3.53;;
9098;SDS011;4585;51.414;6.776;2022-07-23T08:38:56;8.37;;;3.30;;
9098;SDS011;4585;51.414;6.776;2022-07-23T08:41:22;6.47;;;2.83;;
9098;SDS011;4585;51.414;6.776;2022-07-23T08:43:48;4.27;;;3.00;;
9098;SDS011;4585;51.414;6.776;2022-07-23T08:46:13;4.07;;;3.10;;
9098;SDS011;4585;51.414;6.776;2022-07-23T08:48:39;4.20;;;2.77;;
9098;SDS011;4585;51.414;6.776;2022-07-23T08:51:05;6.50;;;3.40;;
9098;SDS011;4585;51.414;6.776;2022-07-23T08:53:32;5.87;;;3.50;;
9098;SDS011;4585;51.414;6.776;2022-07-23T08:56:01;7.03;;;3.70;;
9098;SDS011;4585;51.414;6.776;2022-07-23T08:58:27;4.77;;;2.90;;
9098;SDS011;4585;51.414;6.776;2022-07-23T09:00:54;4.47;;;3.07;;
9098;SDS011;4585;51.414;6.776;2022-07-23T09:05:56;6.00;;;3.13;;
9098;SDS011;4585;51.414;6.776;2022-07-23T09:08:39;5.03;;;3.30;;
9098;SDS011;4585;51.414;6.776;2022-07-23T09:11:07;7.03;;;3.60;;
9098;SDS011;4585;51.414;6.776;2022-07-23T09:13:38;6.17;;;3.67;;
9098;SDS011;4585;51.414;6.776;2022-07-23T09:16:12;5.03;;;3.03;;
9098;SDS011;4585;51.414;6.776;2022-07-23T09:18:51;4.47;;;3.20;;
9098;SDS011;4585;51.414;6.776;2022-07-23T09:21:22;3.83;;;3.23;;
9098;SDS011;4585;51.414;6.776;2022-07-23T09:31:22;6.05;;;3.22;;
9098;SDS011;4585;51.414;6.776;2022-07-23T09:33:49;5.93;;;3.10;;
9098;SDS011;4585;51.414;6.776;2022-07-23T09:36:14;7.18;;;2.78;;
9098;SDS011;4585;51.414;6.776;2022-07-23T09:38:47;4.53;;;2.80;;
9098;SDS011;4585;51.414;6.776;2022-07-23T09:41:14;4.03;;;2.80;;
9098;SDS011;4585;51.414;6.776;2022-07-23T09:43:40;5.90;;;2.72;;
9098;SDS011;4585;51.414;6.776;2022-07-23T09:46:22;6.95;;;2.65;;
9098;SDS011;4585;51.414;6.776;2022-07-23T09:48:52;3.25;;;2.50;;
9098;SDS011;4585;51.414;6.776;2022-07-23T09:51:21;7.13;;;2.67;;
9098;SDS011;4585;51.414;6.776;2022-07-23T09:54:20;2.78;;;1.98;;
9098;SDS011;4585;51.414;6.776;2022-07-23T09:56:46;5.40;;;2.13;;
9098;SDS011;4585;51.414;6.776;2022-07-23T09:59:13;3.78;;;2.20;;
9098;SDS011;4585;51.414;6.776;2022-07-23T10:01:43;3.28;;;2.28;;
9098;SDS011;4585;51.414;6.776;2022-07-23T10:04:10;3.75;;;2.17;;
9098;SDS011;4585;51.414;6.776;2022-07-23T10:06:37;3.10;;;2.10;;
9098;SDS011;4585;51.414;6.776;2022-07-23T10:09:05;7.47;;;2.53;;
9098;SDS011;4585;51.414;6.776;2022-07-23T10:11:35;6.70;;;2.40;;
9098;SDS011;4585;51.414;6.776;2022-07-23T10:14:01;4.68;;;2.63;;
9098;SDS011;4585;51.414;6.776;2022-07-23T10:16:29;6.35;;;2.90;;
9098;SDS011;4585;51.414;6.776;2022-07-23T10:18:55;4.95;;;2.47;;
9098;SDS011;4585;51.414;6.776;2022-07-23T10:21:24;5.10;;;2.40;;
9098;SDS011;4585;51.414;6.776;2022-07-23T10:29:55;2.85;;;2.28;;
9098;SDS011;4585;51.414;6.776;2022-07-23T10:35:40;4.30;;;2.58;;
9098;SDS011;4585;51.414;6.776;2022-07-23T10:40:55;2.75;;;2.08;;
9098;SDS011;4585;51.414;6.776;2022-07-23T10:43:25;6.03;;;2.38;;
9098;SDS011;4585;51.414;6.776;2022-07-23T10:45:52;2.72;;;2.03;;
9098;SDS011;4585;51.414;6.776;2022-07-23T10:53:58;3.05;;;2.15;;
9098;SDS011;4585;51.414;6.776;2022-07-23T10:59:23;2.78;;;2.03;;
9098;SDS011;4585;51.414;6.776;2022-07-23T11:01:49;5.18;;;2.33;;
9098;SDS011;4585;51.414;6.776;2022-07-23T11:04:15;4.18;;;2.20;;
9098;SDS011;4585;51.414;6.776;2022-07-23T11:09:25;4.97;;;1.92;;
9098;SDS011;4585;51.414;6.776;2022-07-23T11:12:31;2.28;;;1.20;;
9098;SDS011;4585;51.414;6.776;2022-07-23T11:17:37;2.55;;;1.90;;
9098;SDS011;4585;51.414;6.776;2022-07-23T11:20:24;5.05;;;2.13;;
9098;SDS011;4585;51.414;6.776;2022-07-23T11:22:57;1.63;;;1.52;;
9098;SDS011;4585;51.414;6.776;2022-07-23T11:27:54;2.53;;;1.70;;
9098;SDS011;4585;51.414;6.776;2022-07-23T11:35:33;3.55;;;1.38;;
9098;SDS011;4585;51.414;6.776;2022-07-23T11:38:06;1.60;;;1.38;;
9098;SDS011;4585;51.414;6.776;2022-07-23T11:40:34;1.60;;;1.50;;
9098;SDS011;4585;51.414;6.776;2022-07-23T11:43:04;2.92;;;1.60;;
9098;SDS011;4585;51.414;6.776;2022-07-23T11:45:38;2.95;;;1.73;;
9098;SDS011;4585;51.414;6.776;2022-07-23T11:48:07;2.88;;;2.00;;
9098;SDS011;4585;51.414;6.776;2022-07-23T11:50:35;1.85;;;1.50;;
9098;SDS011;4585;51.414;6.776;2022-07-23T11:53:02;3.15;;;1.77;;
9098;SDS011;4585;51.414;6.776;2022-07-23T11:55:28;4.45;;;1.77;;
9098;SDS011;4585;51.414;6.776;2022-07-23T11:57:54;2.13;;;1.60;;
9098;SDS011;4585;51.414;6.776;2022-07-23T12:00:23;1.67;;;1.58;;
9098;SDS011;4585;51.414;6.776;2022-07-23T12:02:51;1.83;;;1.63;;
9098;SDS011;4585;51.414;6.776;2022-07-23T12:05:23;1.95;;;1.70;;
9098;SDS011;4585;51.414;6.776;2022-07-23T12:07:51;1.95;;;1.75;;
9098;SDS011;4585;51.414;6.776;2022-07-23T12:10:19;3.00;;;1.85;;
9098;SDS011;4585;51.414;6.776;2022-07-23T12:12:59;2.00;;;1.70;;
9098;SDS011;4585;51.414;6.776;2022-07-23T12:15:30;2.15;;;1.63;;
9098;SDS011;4585;51.414;6.776;2022-07-23T12:18:04;2.30;;;1.83;;
9098;SDS011;4585;51.414;6.776;2022-07-23T12:20:36;3.60;;;2.13;;
9098;SDS011;4585;51.414;6.776;2022-07-23T12:23:07;1.90;;;1.58;;
9098;SDS011;4585;51.414;6.776;2022-07-23T12:25:35;2.63;;;1.90;;
9098;SDS011;4585;51.414;6.776;2022-07-23T12:28:06;2.38;;;1.73;;
9098;SDS011;4585;51.414;6.776;2022-07-23T12:30:50;4.25;;;1.90;;
9098;SDS011;4585;51.414;6.776;2022-07-23T12:35:48;2.25;;;1.77;;
9098;SDS011;4585;51.414;6.776;2022-07-23T12:38:14;3.13;;;1.67;;
9098;SDS011;4585;51.414;6.776;2022-07-23T12:40:50;2.03;;;1.50;;
9098;SDS011;4585;51.414;6.776;2022-07-23T12:45:55;1.70;;;1.60;;
9098;SDS011;4585;51.414;6.776;2022-07-23T12:55:46;5.07;;;1.80;;
9098;SDS011;4585;51.414;6.776;2022-07-23T12:58:14;1.63;;;1.52;;
9098;SDS011;4585;51.414;6.776;2022-07-23T13:00:55;2.72;;;1.83;;
9098;SDS011;4585;51.414;6.776;2022-07-23T13:03:56;1.92;;;1.60;;
9098;SDS011;4585;51.414;6.776;2022-07-23T13:06:19;1.85;;;1.60;;
9098;SDS011;4585;51.414;6.776;2022-07-23T13:08:45;5.30;;;1.77;;
9098;SDS011;4585;51.414;6.776;2022-07-23T13:11:11;1.92;;;1.65;;
9098;SDS011;4585;51.414;6.776;2022-07-23T13:13:36;1.95;;;1.80;;
9098;SDS011;4585;51.414;6.776;2022-07-23T13:16:03;2.47;;;2.00;;
9098;SDS011;4585;51.414;6.776;2022-07-23T13:18:29;2.22;;;1.52;;
9098;SDS011;4585;51.414;6.776;2022-07-23T13:20:55;2.50;;;1.80;;
9098;SDS011;4585;51.414;6.776;2022-07-23T13:23:21;2.03;;;1.60;;
9098;SDS011;4585;51.414;6.776;2022-07-23T13:25:47;3.38;;;1.45;;
9098;SDS011;4585;51.414;6.776;2022-07-23T13:28:14;2.00;;;1.80;;
9098;SDS011;4585;51.414;6.776;2022-07-23T13:30:41;2.10;;;1.70;;
9098;SDS011;4585;51.414;6.776;2022-07-23T13:33:08;1.90;;;1.70;;
9098;SDS011;4585;51.414;6.776;2022-07-23T13:35:35;2.90;;;1.92;;
9098;SDS011;4585;51.414;6.776;2022-07-23T13:38:02;2.28;;;1.60;;
9098;SDS011;4585;51.414;6.776;2022-07-23T13:40:29;2.08;;;1.50;;
9098;SDS011;4585;51.414;6.776;2022-07-23T13:42:55;2.17;;;1.50;;
9098;SDS011;4585;51.414;6.776;2022-07-23T13:45:21;2.85;;;1.90;;
9098;SDS011;4585;51.414;6.776;2022-07-23T13:47:47;4.32;;;1.83;;
9098;SDS011;4585;51.414;6.776;2022-07-23T13:50:12;2.38;;;1.83;;
9098;SDS011;4585;51.414;6.776;2022-07-23T13:52:41;3.47;;;2.00;;
9098;SDS011;4585;51.414;6.776;2022-07-23T13:55:08;2.45;;;1.65;;
9098;SDS011;4585;51.414;6.776;2022-07-23T13:57:33;2.95;;;1.73;;
9098;SDS011;4585;51.414;6.776;2022-07-23T13:59:59;1.63;;;1.52;;
9098;SDS011;4585;51.414;6.776;2022-07-23T14:02:25;2.88;;;1.58;;
9098;SDS011;4585;51.414;6.776;2022-07-23T14:04:51;3.38;;;1.80;;
9098;SDS011;4585;51.414;6.776;2022-07-23T14:07:17;2.08;;;1.58;;
9098;SDS011;4585;51.414;6.776;2022-07-23T14:09:44;2.22;;;1.73;;
9098;SDS011;4585;51.414;6.776;2022-07-23T14:12:09;3.67;;;2.00;;
9098;SDS011;4585;51.414;6.776;2022-07-23T14:14:35;2.70;;;2.00;;
9098;SDS011;4585;51.414;6.776;2022-07-23T14:17:01;4.05;;;1.83;;
9098;SDS011;4585;51.414;6.776;2022-07-23T14:19:28;1.75;;;1.52;;
9098;SDS011;4585;51.414;6.776;2022-07-23T14:21:54;5.20;;;2.22;;
9098;SDS011;4585;51.414;6.776;2022-07-23T14:24:19;3.05;;;2.08;;
9098;SDS011;4585;51.414;6.776;2022-07-23T14:26:45;3.45;;;1.88;;
9098;SDS011;4585;51.414;6.776;2022-07-23T14:29:11;2.17;;;1.80;;
9098;SDS011;4585;51.414;6.776;2022-07-23T14:31:37;4.15;;;1.80;;
9098;SDS011;4585;51.414;6.776;2022-07-23T14:34:02;2.60;;;1.70;;
9098;SDS011;4585;51.414;6.776;2022-07-23T14:36:28;2.78;;;1.80;;
9098;SDS011;4585;51.414;6.776;2022-07-23T14:38:54;3.58;;;1.83;;
9098;SDS011;4585;51.414;6.776;2022-07-23T14:41:20;2.67;;;1.77;;
9098;SDS011;4585;51.414;6.776;2022-07-23T14:43:47;2.25;;;1.83;;
9098;SDS011;4585;51.414;6.776;2022-07-23T14:46:14;3.53;;;1.80;;
9098;SDS011;4585;51.414;6.776;2022-07-23T14:48:40;1.95;;;1.75;;
9098;SDS011;4585;51.414;6.776;2022-07-23T14:51:06;3.15;;;2.08;;
9098;SDS011;4585;51.414;6.776;2022-07-23T14:53:32;3.97;;;2.45;;
9098;SDS011;4585;51.414;6.776;2022-07-23T14:55:57;5.57;;;2.20;;
9098;SDS011;4585;51.414;6.776;2022-07-23T14:58:23;1.90;;;1.70;;
9098;SDS011;4585;51.414;6.776;2022-07-23T15:00:49;2.28;;;1.73;;
9098;SDS011;4585;51.414;6.776;2022-07-23T15:03:16;2.50;;;1.80;;
9098;SDS011;4585;51.414;6.776;2022-07-23T15:05:41;3.17;;;1.95;;
9098;SDS011;4585;51.414;6.776;2022-07-23T15:08:07;3.90;;;2.25;;
9098;SDS011;4585;51.414;6.776;2022-07-23T15:10:33;3.85;;;2.00;;
9098;SDS011;4585;51.414;6.776;2022-07-23T15:12:59;3.10;;;2.20;;
9098;SDS011;4585;51.414;6.776;2022-07-23T15:15:25;2.60;;;2.10;;
9098;SDS011;4585;51.414;6.776;2022-07-23T15:17:50;2.08;;;1.88;;
9098;SDS011;4585;51.414;6.776;2022-07-23T15:20:16;2.10;;;1.90;;
9098;SDS011;4585;51.414;6.776;2022-07-23T15:22:42;2.47;;;1.83;;
9098;SDS011;4585;51.414;6.776;2022-07-23T15:25:10;4.35;;;2.20;;
9098;SDS011;4585;51.414;6.776;2022-07-23T15:27:36;2.13;;;1.92;;
9098;SDS011;4585;51.414;6.776;2022-07-23T15:30:03;2.10;;;1.90;;
9098;SDS011;4585;51.414;6.776;2022-07-23T15:32:29;2.53;;;1.95;;
9098;SDS011;4585;51.414;6.776;2022-07-23T15:34:54;2.90;;;1.95;;
9098;SDS011;4585;51.414;6.776;2022-07-23T15:37:20;2.65;;;2.10;;
9098;SDS011;4585;51.414;6.776;2022-07-23T15:39:48;3.15;;;2.03;;
9098;SDS011;4585;51.414;6.776;2022-07-23T15:42:14;2.70;;;2.00;;
9098;SDS011;4585;51.414;6.776;2022-07-23T15:44:40;1.95;;;1.75;;
9098;SDS011;4585;51.414;6.776;2022-07-23T15:47:10;5.95;;;1.95;;
9098;SDS011;4585;51.414;6.776;2022-07-23T15:49:38;2.38;;;1.60;;
9098;SDS011;4585;51.414;6.776;2022-07-23T15:52:03;3.10;;;1.92;;
9098;SDS011;4585;51.414;6.776;2022-07-23T15:54:29;2.22;;;1.98;;
9098;SDS011;4585;51.414;6.776;2022-07-23T15:56:55;2.53;;;1.88;;
9098;SDS011;4585;51.414;6.776;2022-07-23T15:59:21;2.55;;;2.30;;
9098;SDS011;4585;51.414;6.776;2022-07-23T16:01:47;3.58;;;2.10;;
9098;SDS011;4585;51.414;6.776;2022-07-23T16:04:13;2.15;;;1.90;;
9098;SDS011;4585;51.414;6.776;2022-07-23T16:06:38;5.10;;;1.95;;